MNZ weather

Manassas Regional Airport/Harry P. Davis Field
Manassas, Virginia, United States

Public forecast

Using degrees Fahrenheit for public forecast. Weather courtesy of forecast.io.

Current aviation weather report (METAR) for Manassas Regional Airport/Harry P. Davis Field

Retrieved 2020/07/12 01:56 UTC (20 minutes ago):

KHEF 120156Z AUTO 00000KT 10SM CLR 23/19 A2979 RMK AO2 SLP092 T02280194

Closest aviation forecast (TAF) to Manassas Regional Airport/Harry P. Davis Field

Closest forecast is Washington Dulles International Airport, 13.7 nm (25.3 km) NNE. Retrieved 2020-07-12 00:36 UTC (2 hours ago):

TAF KIAD 112332Z 1200/1306 29008KT P6SM BKN080 FM120200 29007KT P6SM SCT080 FM121500 25005KT P6SM FEW050 FM121900 22008KT P6SM BKN060 FM130000 25005KT P6SM BKN050